Time;durP1;ratioP1;P1;durP2;ratioP2;P2;SDS_P1;SDS_P2;PMS_P1;PMS_P2;Temp;Humidity;BMP_temperature;BMP_pressure;BME280_temperature;BME280_humidity;BME280_pressure;Samples;Min_cycle;Max_cycle;Signal;HPM_P1;HPM_P2
2022/12/14 00:02:21;;;;;;;77.87;29.82;;;;;;;-5.43;75.72;100526.91;1716840;81;20950;-77
2022/12/14 00:05:06;;;;;;;74.23;30.43;;;;;;;-5.43;75.78;100526.52;1713630;81;20957;-77
2022/12/14 00:07:51;;;;;;;80.22;30.48;;;;;;;-5.42;75.79;100521.08;1714932;81;22090;-77
2022/12/14 00:10:38;;;;;;;84.83;31.35;;;;;;;-5.43;75.67;100527.78;1717876;81;20906;-77
2022/12/14 00:13:23;;;;;;;82.70;32.08;;;;;;;-5.52;75.78;100513.49;1716456;82;21411;-77
2022/12/14 00:16:14;;;;;;;77.03;30.57;;;;;;;-5.52;75.78;100513.49;1717199;81;21002;-77
2022/12/14 00:19:01;;;;;;;79.22;29.25;;;;;;;-5.52;75.82;100510.11;1716164;81;20926;-77
2022/12/14 00:21:45;;;;;;;65.95;27.02;;;;;;;-5.50;75.79;100501.83;1716793;82;20942;-77
2022/12/14 00:24:30;;;;;;;66.62;27.05;;;;;;;-5.51;75.68;100506.80;1716845;81;21525;-77
2022/12/14 00:27:15;;;;;;;77.07;26.90;;;;;;;-5.56;75.62;100514.14;1715667;82;21495;-77
2022/12/14 00:30:00;;;;;;;73.80;26.25;;;;;;;-5.56;75.71;100511.63;1716190;81;20969;-77
2022/12/14 00:32:46;;;;;;;70.27;26.50;;;;;;;-5.56;75.68;100512.02;1717005;81;20942;-77
2022/12/14 00:35:31;;;;;;;;;;;;;;;-5.59;75.71;100514.00;1717384;81;20911;-77
2022/12/14 00:38:16;;;;;;;60.03;23.27;;;;;;;-5.65;75.53;100512.45;1718256;81;20517;-78
2022/12/14 00:41:00;;;;;;;63.10;24.77;;;;;;;-5.73;75.48;100505.83;1716102;81;20922;-77
2022/12/14 00:43:45;;;;;;;55.78;21.20;;;;;;;-5.74;75.72;100510.80;1716427;81;21427;-77
2022/12/14 00:46:30;;;;;;;58.57;22.57;;;;;;;-5.69;75.78;100509.32;1717635;81;20970;-77
2022/12/14 00:49:15;;;;;;;51.30;20.65;;;;;;;-5.70;75.73;100507.20;1715868;81;21467;-77
2022/12/14 00:52:00;;;;;;;55.03;21.87;;;;;;;-5.67;75.78;100504.83;1720001;81;21046;-77
2022/12/14 00:54:46;;;;;;;52.62;21.37;;;;;;;-5.69;75.74;100501.77;1717192;81;22166;-77
2022/12/14 00:57:31;;;;;;;47.73;21.23;;;;;;;-5.75;75.66;100496.47;1716498;81;20910;-77
2022/12/14 01:00:16;;;;;;;51.92;20.85;;;;;;;-5.79;75.69;100499.24;1716523;82;21208;-77
2022/12/14 01:03:02;;;;;;;47.45;20.37;;;;;;;-5.79;75.70;100499.24;1716939;81;26455;-77
2022/12/14 01:05:47;;;;;;;;;;;;;;;-5.78;75.76;100493.81;1718180;81;21053;-77
2022/12/14 01:08:35;;;;;;;37.28;13.15;;;;;;;-5.78;75.79;100488.78;1716375;81;20466;-76
2022/12/14 01:11:19;;;;;;;47.00;19.07;;;;;;;-5.89;75.66;100468.16;1717415;81;21365;-77
2022/12/14 01:14:06;;;;;;;47.83;20.08;;;;;;;-5.89;75.66;100468.16;1713031;81;20922;-77
2022/12/14 01:16:51;;;;;;;48.92;20.25;;;;;;;-5.89;75.84;100468.16;1715986;81;21459;-77
2022/12/14 01:19:36;;;;;;;48.50;20.20;;;;;;;-5.89;75.84;100468.16;1716773;82;20921;-77
2022/12/14 01:22:21;;;;;;;48.53;21.60;;;;;;;-5.82;75.64;100485.25;1717600;81;21659;-77
2022/12/14 01:25:06;;;;;;;48.37;21.30;;;;;;;-5.83;75.74;100482.27;1718871;82;21706;-77
2022/12/14 01:27:51;;;;;;;52.53;21.85;;;;;;;-5.84;75.75;100480.53;1715915;81;21212;-77
2022/12/14 01:30:38;;;;;;;49.25;21.52;;;;;;;-5.81;75.78;100483.20;1716290;81;20958;-77
2022/12/14 01:33:23;;;;;;;57.38;22.22;;;;;;;-5.79;75.74;100484.53;1716772;81;20986;-77
2022/12/14 01:36:15;;;;;;;53.83;21.63;;;;;;;-5.80;75.75;100479.89;1715969;81;20978;-77
2022/12/14 01:39:05;;;;;;;51.92;22.62;;;;;;;-5.82;75.75;100467.63;1713295;82;20902;-77
2022/12/14 01:41:51;;;;;;;55.98;22.75;;;;;;;-5.82;75.75;100467.63;1698663;82;20872;-77
2022/12/14 01:44:44;;;;;;;49.88;20.92;;;;;;;-5.81;75.70;100474.78;1715312;82;21364;-77
2022/12/14 01:47:42;;;;;;;54.13;21.55;;;;;;;-5.83;75.68;100475.97;1714811;81;21545;-77
2022/12/14 01:50:34;;;;;;;54.88;23.15;;;;;;;-5.84;75.65;100473.38;1713866;81;20918;-78
2022/12/14 01:53:21;;;;;;;48.78;22.15;;;;;;;-5.87;75.68;100465.29;1717713;82;21432;-77
2022/12/14 01:56:07;;;;;;;50.60;22.13;;;;;;;-5.88;75.42;100456.01;1714428;81;20898;-77
2022/12/14 01:58:52;;;;;;;55.48;24.40;;;;;;;-5.88;75.42;100456.01;1713607;81;21425;-77
2022/12/14 02:01:38;;;;;;;50.92;23.32;;;;;;;-5.91;75.64;100454.64;1715330;81;20914;-77
2022/12/14 02:04:23;;;;;;;59.98;24.98;;;;;;;-5.94;75.68;100459.53;1713097;82;20914;-77
2022/12/14 02:07:10;;;;;;;57.62;20.08;;;;;;;-5.93;75.75;100457.48;1715405;81;21388;-77
2022/12/14 02:09:58;;;;;;;59.13;26.20;;;;;;;-5.93;75.74;100462.91;1714237;81;21589;-77
2022/12/14 02:12:51;;;;;;;72.00;26.33;;;;;;;-5.89;75.79;100457.23;1715887;81;21575;-77
2022/12/14 02:15:38;;;;;;;66.20;27.87;;;;;;;-5.86;75.82;100460.72;1691869;82;21034;-77
2022/12/14 02:18:27;;;;;;;66.35;27.05;;;;;;;-5.83;75.92;100465.03;1708951;82;21348;-77
2022/12/14 02:21:44;;;;;;;72.22;29.75;;;;;;;;;;1702698;83;20955;-77
2022/12/14 02:25:01;;;;;;;65.42;27.65;;;;;;;-5.59;76.12;100457.73;1707132;83;20942;-77
2022/12/14 02:28:24;;;;;;;75.12;28.75;;;;;;;-5.59;76.12;100457.73;1707111;82;21455;-77
2022/12/14 02:31:20;;;;;;;81.05;29.92;;;;;;;-5.49;76.25;100454.84;1707001;82;20943;-76
2022/12/14 02:34:19;;;;;;;83.82;29.80;;;;;;;-5.40;76.23;100460.29;1708586;82;20966;-77
2022/12/14 02:37:30;;;;;;;69.92;27.00;;;;;;;-5.32;76.30;100458.98;1706589;82;21486;-77
2022/12/14 02:40:44;;;;;;;70.40;27.75;;;;;;;-5.19;76.33;100465.40;1709903;81;21517;-77
2022/12/14 02:43:51;;;;;;;55.50;20.55;;;;;;;-5.19;76.33;100465.40;1707616;82;21542;-77
2022/12/14 02:46:42;;;;;;;64.80;26.57;;;;;;;-5.16;76.36;100444.11;1707543;82;20934;-77
2022/12/14 02:49:47;;;;;;;67.78;26.85;;;;;;;-5.04;76.36;100455.59;1707401;82;21379;-77
2022/12/14 02:52:55;;;;;;;61.18;25.70;;;;;;;-5.10;76.26;100437.68;1708577;82;26605;-77
2022/12/14 02:55:45;;;;;;;71.77;29.90;;;;;;;-4.99;76.34;100452.02;1714031;81;20919;-77
2022/12/14 02:58:40;;;;;;;68.78;28.98;;;;;;;-5.08;76.28;100432.30;1698208;83;21768;-77
2022/12/14 03:01:28;;;;;;;78.67;29.57;;;;;;;-5.04;76.18;100454.73;1712707;81;20919;-77
2022/12/14 03:04:14;;;;;;;65.90;26.27;;;;;;;-5.10;76.37;100450.28;1710612;83;20950;-77
2022/12/14 03:07:08;;;;;;;63.35;26.70;;;;;;;-5.11;76.33;100445.17;1712448;82;20911;-77
2022/12/14 03:09:53;;;;;;;65.62;26.95;;;;;;;-5.08;76.44;100449.09;1710552;83;21420;-76
2022/12/14 03:12:41;;;;;;;61.65;25.97;;;;;;;-5.05;76.44;100450.48;1706539;83;20906;-77
2022/12/14 03:15:29;;;;;;;71.70;28.12;;;;;;;-5.03;76.52;100445.11;1713311;82;20899;-77
2022/12/14 03:18:17;;;;;;;79.22;29.20;;;;;;;-5.03;76.36;100443.85;1712580;82;20895;-77
2022/12/14 03:21:05;;;;;;;72.50;29.18;;;;;;;-4.99;76.59;100438.15;1713594;82;20946;-77
2022/12/14 03:23:52;;;;;;;74.37;28.62;;;;;;;-4.95;76.62;100433.70;1715001;82;20934;-77
2022/12/14 03:26:48;;;;;;;71.37;29.65;;;;;;;-4.91;76.61;100431.77;1711934;82;21420;-77
2022/12/14 03:29:44;;;;;;;71.90;27.93;;;;;;;-4.91;76.60;100433.44;1715611;83;20915;-77
2022/12/14 03:32:31;;;;;;;83.45;30.72;;;;;;;-4.85;76.73;100438.34;1713640;83;20946;-77
2022/12/14 03:35:30;;;;;;;77.97;29.18;;;;;;;-4.79;76.55;100442.38;1712775;82;20922;-77
2022/12/14 03:38:43;;;;;;;84.75;31.07;;;;;;;-4.78;76.69;100436.94;1712801;81;20983;-77
2022/12/14 03:41:36;;;;;;;69.27;28.32;;;;;;;-4.77;76.62;100436.15;1711917;83;20919;-77
2022/12/14 03:44:41;;;;;;;77.92;29.32;;;;;;;-4.78;76.73;100434.02;1712646;82;20939;-77
2022/12/14 03:48:00;;;;;;;84.07;31.05;;;;;;;-4.72;76.80;100439.73;1713854;81;25078;-77
2022/12/14 03:51:01;;;;;;;72.12;28.32;;;;;;;-4.63;76.86;100432.52;1652108;82;5000167;-77
2022/12/14 03:54:18;;;;;;;73.72;29.00;;;;;;;-4.55;76.79;100438.73;1707620;83;20946;-77
2022/12/14 03:57:08;;;;;;;74.75;30.10;;;;;;;-4.54;76.73;100437.08;1715697;82;21462;-77
2022/12/14 04:00:04;;;;;;;66.82;27.30;;;;;;;-4.53;76.68;100433.76;1710299;82;20892;-77
2022/12/14 04:03:00;;;;;;;67.25;26.57;;;;;;;-4.58;76.63;100422.61;1711434;82;21355;-77
2022/12/14 04:05:50;;;;;;;72.53;26.90;;;;;;;-4.69;76.57;100399.50;1709435;81;21441;-77
2022/12/14 04:09:03;;;;;;;63.52;25.85;;;;;;;-4.69;76.57;100399.50;1711242;83;20902;-77
2022/12/14 04:21:44;;;;;;;64.95;26.85;;;;;;;-4.93;76.46;100408.55;1710671;82;20903;-77
2022/12/14 04:31:12;;;;;;;63.85;26.37;;;;;;;-5.03;76.50;100404.38;1714879;82;20986;-77
2022/12/14 04:34:01;;;;;;;59.73;25.88;;;;;;;-5.13;76.55;100405.17;1710094;82;20906;-76
2022/12/14 04:36:51;;;;;;;57.23;26.12;;;;;;;-5.13;76.55;100405.17;1699232;82;20962;-76
2022/12/14 04:39:49;;;;;;;56.33;24.85;;;;;;;-5.25;76.56;100406.80;1712442;82;21569;-75
2022/12/14 04:42:40;;;;;;;56.10;23.73;;;;;;;-5.26;76.39;100407.59;1716328;81;21550;-75
2022/12/14 04:45:30;;;;;;;54.00;24.30;;;;;;;-5.26;76.39;100407.59;1714208;81;20937;-76
2022/12/14 04:48:34;;;;;;;58.28;25.15;;;;;;;-5.30;76.39;100403.61;1713787;81;20911;-75
2022/12/14 04:51:33;;;;;;;53.68;23.35;;;;;;;-5.36;76.52;100401.69;1714775;81;20923;-75
2022/12/14 04:54:26;;;;;;;49.23;23.42;;;;;;;-5.41;76.43;100393.92;1712342;82;21419;-75
2022/12/14 04:57:28;;;;;;;54.03;25.02;;;;;;;-5.41;76.43;100393.92;1679783;83;21462;-75
2022/12/14 05:00:15;;;;;;;56.58;24.90;;;;;;;-5.59;76.37;100365.80;1670733;83;21693;-75
2022/12/14 05:03:28;;;;;;;55.35;25.15;;;;;;;-5.59;76.37;100365.80;1674187;83;20919;-75
2022/12/14 05:06:30;;;;;;;54.63;25.30;;;;;;;-5.55;76.39;100388.67;1672939;83;21563;-75
2022/12/14 05:09:20;;;;;;;53.45;24.72;;;;;;;-5.69;76.37;100366.64;1673808;83;21543;-75
2022/12/14 05:12:28;;;;;;;61.23;26.20;;;;;;;-5.75;76.11;100362.63;1684335;83;22010;-76
2022/12/14 05:15:23;;;;;;;53.55;24.47;;;;;;;-5.75;76.11;100362.63;1684167;83;21094;-75
2022/12/14 05:18:10;;;;;;;55.48;25.90;;;;;;;-5.67;76.27;100382.69;1683875;83;20920;-76
2022/12/14 05:20:55;;;;;;;59.30;25.48;;;;;;;-5.70;76.33;100385.06;1675737;83;21493;-75
2022/12/14 05:23:39;;;;;;;59.83;26.45;;;;;;;-5.72;76.39;100377.01;1685311;83;20951;-76
2022/12/14 05:26:24;;;;;;;55.52;25.95;;;;;;;-5.74;76.45;100367.27;1682970;84;20918;-75
2022/12/14 05:29:09;;;;;;;53.42;26.00;;;;;;;-5.74;76.45;100367.27;1679644;84;21595;-76
2022/12/14 05:31:54;;;;;;;50.30;25.37;;;;;;;-5.74;76.38;100372.30;1669307;84;21410;-76
2022/12/14 05:34:40;;;;;;;61.42;25.17;;;;;;;-5.74;76.36;100369.78;1660158;84;21000;-75
2022/12/14 05:37:24;;;;;;;58.02;26.05;;;;;;;-5.77;76.25;100368.39;1655170;84;21559;-76
2022/12/14 05:40:10;;;;;;;52.30;25.92;;;;;;;-5.84;76.22;100362.21;1655368;84;21020;-76
2022/12/14 05:43:06;;;;;;;;;;;;;;;-5.87;76.26;100367.50;1653718;84;20960;-80
2022/12/14 05:45:59;;;;;;;60.80;24.37;;;;;;;-5.99;76.27;100360.68;1651948;84;20116;-76
2022/12/14 05:48:44;;;;;;;56.28;26.35;;;;;;;-5.99;76.27;100360.68;1671678;81;21542;-77
2022/12/14 05:51:29;;;;;;;62.70;26.73;;;;;;;-6.06;76.21;100360.80;1715021;81;20927;-75
2022/12/14 05:54:14;;;;;;;59.53;27.57;;;;;;;-6.11;76.26;100359.33;1715811;82;20954;-76
2022/12/14 05:56:59;;;;;;;61.07;26.80;;;;;;;-6.11;76.33;100365.61;1718538;81;20979;-76
2022/12/14 05:59:44;;;;;;;45.25;20.97;;;;;;;-6.08;76.39;100363.24;1719972;81;21324;-75
2022/12/14 06:02:29;;;;;;;59.90;27.20;;;;;;;-6.07;76.38;100368.74;1718162;81;20963;-77
2022/12/14 06:05:14;;;;;;;57.55;26.60;;;;;;;-6.04;76.33;100369.28;1719509;81;20954;-78
2022/12/14 06:07:59;;;;;;;58.28;26.37;;;;;;;-6.04;76.33;100369.28;1719873;81;21301;-78
2022/12/14 06:10:44;;;;;;;59.33;26.65;;;;;;;-6.03;76.33;100364.31;1720329;82;22185;-78
2022/12/14 06:13:29;;;;;;;47.50;20.48;;;;;;;-6.04;76.27;100366.37;1714181;82;20938;-78
2022/12/14 06:16:20;;;;;;;61.80;26.93;;;;;;;-6.06;76.22;100367.95;1720971;81;20950;-78
2022/12/14 06:19:05;;;;;;;60.40;26.57;;;;;;;-6.11;76.16;100365.61;1717168;82;20990;-78
2022/12/14 06:21:50;;;;;;;65.80;29.67;;;;;;;-6.14;76.18;100363.35;1724990;82;20926;-78
2022/12/14 06:24:35;;;;;;;62.43;28.67;;;;;;;-6.16;76.18;100362.42;1722954;82;21769;-78
2022/12/14 06:27:20;;;;;;;56.98;27.30;;;;;;;-6.19;76.17;100358.50;1714614;81;20939;-78
2022/12/14 06:30:08;;;;;;;65.72;30.12;;;;;;;-6.25;76.11;100354.47;1716835;82;21049;-78
2022/12/14 06:32:52;;;;;;;65.92;29.00;;;;;;;-6.28;76.20;100349.30;1716960;81;20907;-78
2022/12/14 06:35:38;;;;;;;66.70;29.40;;;;;;;-6.32;76.20;100354.58;1714699;82;20945;-78
2022/12/14 06:38:23;;;;;;;64.80;29.18;;;;;;;-6.39;76.14;100347.14;1716074;81;21049;-78
2022/12/14 06:41:08;;;;;;;63.60;27.48;;;;;;;-6.40;76.26;100349.19;1716962;82;20974;-78
2022/12/14 06:43:53;;;;;;;61.83;27.93;;;;;;;-6.36;76.27;100347.68;1717809;81;20930;-78
2022/12/14 06:46:38;;;;;;;58.33;28.30;;;;;;;-6.37;76.20;100353.11;1717326;81;21475;-78
2022/12/14 06:49:23;;;;;;;64.20;29.15;;;;;;;-6.39;76.22;100350.05;1719118;82;21055;-78
2022/12/14 06:52:09;;;;;;;57.00;23.35;;;;;;;-6.40;76.25;100358.39;1716096;82;21803;-78
2022/12/14 06:54:54;;;;;;;88.03;35.65;;;;;;;-6.40;76.24;100359.25;1713547;82;21348;-78
2022/12/14 06:57:39;;;;;;;89.80;36.55;;;;;;;-6.42;76.17;100363.34;1718512;82;21560;-78
2022/12/14 07:00:25;;;;;;;95.10;39.80;;;;;;;-6.44;76.19;100358.63;1713617;82;21526;-78
2022/12/14 07:03:10;;;;;;;74.65;33.60;;;;;;;-6.46;76.14;100359.35;1716800;82;21347;-78
2022/12/14 07:05:59;;;;;;;69.40;32.95;;;;;;;-6.47;76.17;100360.14;1715100;82;21344;-78
2022/12/14 07:08:44;;;;;;;67.90;31.35;;;;;;;-6.45;76.26;100359.82;1714816;81;21411;-78
2022/12/14 07:11:30;;;;;;;60.60;29.40;;;;;;;-6.42;76.25;100365.86;1665710;84;21889;-78
2022/12/14 07:14:16;;;;;;;;;;;;;;;-6.42;76.13;100363.73;1717256;82;21407;-77
2022/12/14 07:17:01;;;;;;;57.25;25.57;;;;;;;-6.43;76.13;100357.84;1714504;82;20444;-78
2022/12/14 07:19:46;;;;;;;63.60;27.80;;;;;;;-6.42;76.16;100354.94;1710303;82;20939;-78
2022/12/14 07:22:31;;;;;;;61.65;26.80;;;;;;;-6.43;76.18;100344.41;1707140;82;20983;-79
2022/12/14 07:25:16;;;;;;;63.43;28.03;;;;;;;-6.43;76.16;100341.89;1705868;82;20907;-78
2022/12/14 07:28:01;;;;;;;62.13;28.60;;;;;;;-6.42;76.18;100334.81;1706534;81;21584;-78
2022/12/14 07:30:46;;;;;;;55.50;27.00;;;;;;;-6.42;76.17;100331.91;1711029;82;21498;-78
2022/12/14 07:33:31;;;;;;;62.23;26.73;;;;;;;-6.39;76.20;100330.80;1709873;82;20962;-78
2022/12/14 07:36:18;;;;;;;57.23;26.10;;;;;;;-6.35;76.26;100329.28;1698196;83;20962;-78
2022/12/14 07:39:03;;;;;;;58.63;28.40;;;;;;;-6.31;76.28;100329.03;1706270;82;21030;-78
2022/12/14 07:41:49;;;;;;;59.40;27.40;;;;;;;-6.26;76.30;100327.20;1707715;81;21532;-78
2022/12/14 07:44:34;;;;;;;;;;;;;;;-6.22;76.34;100327.77;1709163;81;20991;-78
2022/12/14 07:47:19;;;;;;;61.45;26.60;;;;;;;-6.16;76.36;100325.94;1706636;83;20425;-78
2022/12/14 07:50:04;;;;;;;59.33;26.73;;;;;;;-6.04;76.49;100324.84;1706664;82;20948;-78
2022/12/14 07:52:49;;;;;;;59.53;26.80;;;;;;;-5.98;76.40;100325.52;1705978;81;20946;-78
2022/12/14 07:55:34;;;;;;;61.30;29.13;;;;;;;-5.96;76.39;100323.06;1705929;83;20910;-78
2022/12/14 07:58:19;;;;;;;66.17;28.00;;;;;;;-5.93;76.51;100320.69;1707655;82;21916;-78
2022/12/14 08:01:16;;;;;;;59.38;27.58;;;;;;;-5.88;76.50;100315.03;1706470;81;20934;-78
2022/12/14 08:04:08;;;;;;;54.10;26.33;;;;;;;-5.84;76.53;100310.60;1706949;81;20919;-78
2022/12/14 08:06:53;;;;;;;56.02;27.70;;;;;;;-5.76;76.54;100290.40;1705318;81;20899;-78
2022/12/14 08:09:38;;;;;;;53.47;27.00;;;;;;;-5.76;76.54;100290.40;1705969;82;21526;-78
2022/12/14 08:12:23;;;;;;;55.28;26.15;;;;;;;-5.60;76.54;100304.48;1705032;82;22192;-78
2022/12/14 08:15:08;;;;;;;55.40;27.10;;;;;;;-5.58;76.56;100308.33;1705187;82;21440;-76
2022/12/14 08:17:53;;;;;;;55.25;26.55;;;;;;;-5.51;76.63;100306.15;1707601;81;21863;-76
2022/12/14 08:20:38;;;;;;;51.15;24.52;;;;;;;-5.47;76.62;100310.52;1713051;82;21025;-76
2022/12/14 08:23:24;;;;;;;54.70;26.17;;;;;;;-5.41;76.66;100311.19;1712161;81;20934;-75
2022/12/14 08:26:08;;;;;;;52.17;25.10;;;;;;;-5.34;76.68;100314.42;1713646;81;21822;-76
2022/12/14 08:28:55;;;;;;;47.43;23.98;;;;;;;-5.30;76.78;100307.86;1715092;82;20945;-76
2022/12/14 08:31:40;;;;;;;52.67;26.12;;;;;;;-5.26;76.71;100301.76;1693111;82;20974;-75
2022/12/14 08:34:25;;;;;;;51.68;24.37;;;;;;;-5.25;76.59;100293.80;1710838;82;20923;-76
2022/12/14 08:37:10;;;;;;;51.35;25.75;;;;;;;-5.28;76.62;100293.27;1716044;81;21441;-76
2022/12/14 08:39:55;;;;;;;59.45;25.48;;;;;;;-5.24;76.71;100297.64;1715279;82;21709;-75
2022/12/14 08:42:40;;;;;;;54.75;25.27;;;;;;;-5.24;76.66;100291.34;1714911;81;20949;-75
2022/12/14 08:45:25;;;;;;;50.57;24.63;;;;;;;-5.25;76.62;100293.40;1717193;82;20903;-76
2022/12/14 08:48:10;;;;;;;51.63;24.33;;;;;;;-5.23;76.73;100293.06;1713494;82;20911;-75
2022/12/14 08:51:02;;;;;;;51.00;24.73;;;;;;;-5.24;76.71;100287.56;1713520;82;20987;-76
2022/12/14 08:53:47;;;;;;;48.78;23.50;;;;;;;-5.20;76.82;100279.73;1714114;82;20950;-75
2022/12/14 08:56:32;;;;;;;59.90;26.35;;;;;;;-5.21;76.81;100267.93;1713233;81;21049;-76
2022/12/14 08:59:17;;;;;;;53.58;23.92;;;;;;;-5.19;76.72;100278.91;1714847;82;20906;-76
2022/12/14 09:02:02;;;;;;;48.68;24.75;;;;;;;-5.21;76.79;100272.56;1712289;81;20898;-75
2022/12/14 09:04:47;;;;;;;54.23;25.07;;;;;;;-5.19;76.83;100269.68;1714039;82;21360;-75
2022/12/14 09:07:32;;;;;;;51.77;24.60;;;;;;;-5.17;76.90;100261.78;1714717;82;21475;-76
2022/12/14 09:10:17;;;;;;;59.23;26.53;;;;;;;-5.16;76.86;100260.13;1712386;81;21395;-75
2022/12/14 09:13:02;;;;;;;55.23;24.63;;;;;;;-5.12;76.96;100260.71;1710555;82;20942;-75
2022/12/14 09:15:58;;;;;;;47.53;23.85;;;;;;;-5.10;76.91;100260.38;1711931;82;20903;-75
2022/12/14 09:18:45;;;;;;;48.98;24.05;;;;;;;-5.05;76.99;100244.64;1712698;82;20973;-75
2022/12/14 09:21:30;;;;;;;53.83;27.15;;;;;;;-5.00;76.78;100239.78;1713139;82;20959;-76
2022/12/14 09:24:15;;;;;;;52.60;24.80;;;;;;;-5.00;76.78;100239.78;1714864;82;21403;-75
2022/12/14 09:27:00;;;;;;;42.10;19.82;;;;;;;-4.96;77.02;100237.84;1715057;81;21376;-75
2022/12/14 09:29:45;;;;;;;43.25;21.87;;;;;;;-4.93;77.03;100232.92;1713926;82;21370;-75
2022/12/14 09:32:30;;;;;;;46.63;23.52;;;;;;;-4.89;77.04;100227.61;1715769;82;20983;-76
2022/12/14 09:35:15;;;;;;;51.68;24.05;;;;;;;-4.86;77.07;100218.90;1718318;82;20922;-75
2022/12/14 09:38:00;;;;;;;50.98;22.55;;;;;;;-4.85;76.97;100215.58;1716002;82;20898;-75
2022/12/14 09:40:55;;;;;;;48.98;22.80;;;;;;;-4.84;77.01;100213.52;1717786;82;21312;-75
2022/12/14 09:43:45;;;;;;;46.28;22.90;;;;;;;-4.82;77.10;100203.95;1716873;82;20910;-76
2022/12/14 09:46:57;;;;;;;46.70;23.85;;;;;;;-4.76;77.09;100201.67;1709860;82;20914;-76
2022/12/14 09:49:51;;;;;;;50.03;23.42;;;;;;;-4.71;77.17;100198.06;1715139;82;20950;-75
2022/12/14 09:52:52;;;;;;;44.23;22.58;;;;;;;-4.63;77.24;100187.83;1713788;82;21033;-75
2022/12/14 09:55:44;;;;;;;43.68;21.97;;;;;;;-4.56;77.26;100178.83;1714148;82;21379;-76
2022/12/14 09:58:31;;;;;;;53.48;25.52;;;;;;;-4.51;77.20;100183.25;1715562;81;21400;-75
2022/12/14 10:01:39;;;;;;;48.73;25.55;;;;;;;-4.45;77.23;100176.31;1714820;82;20970;-76
2022/12/14 10:04:38;;;;;;;49.23;24.35;;;;;;;-4.44;77.19;100176.36;1716949;82;20990;-75
2022/12/14 10:07:50;;;;;;;47.00;23.32;;;;;;;-4.39;77.26;100174.01;1715983;82;20938;-76
2022/12/14 10:11:15;;;;;;;47.35;25.10;;;;;;;-4.47;77.28;100149.75;1694187;82;20986;-76
2022/12/14 10:14:14;;;;;;;43.70;22.58;;;;;;;-4.27;77.38;100169.41;1715763;82;20925;-76
2022/12/14 10:17:13;;;;;;;44.27;24.87;;;;;;;-4.24;77.31;100161.95;1713026;81;20879;-75
2022/12/14 10:20:05;;;;;;;46.58;23.50;;;;;;;-4.19;77.33;100158.33;1707814;82;21488;-76
2022/12/14 10:22:52;;;;;;;46.55;23.47;;;;;;;-4.18;77.30;100157.12;1705107;81;20938;-76
2022/12/14 10:25:38;;;;;;;50.05;26.10;;;;;;;-4.11;77.38;100148.06;1707248;81;20943;-76
2022/12/14 10:28:47;;;;;;;51.77;24.75;;;;;;;-4.07;77.42;100148.22;1708756;82;20938;-76
2022/12/14 10:31:40;;;;;;;58.13;25.48;;;;;;;-4.00;77.47;100144.25;1704907;81;20975;-76
2022/12/14 10:34:29;;;;;;;45.10;23.27;;;;;;;-3.94;77.34;100142.34;1707840;81;21363;-76
2022/12/14 10:37:31;;;;;;;45.88;22.80;;;;;;;-3.91;77.27;100138.66;1708113;82;21309;-76
2022/12/14 10:40:29;;;;;;;54.13;25.35;;;;;;;-3.89;77.38;100136.64;1704865;81;21460;-76
2022/12/14 10:43:57;;;;;;;52.00;25.60;;;;;;;-3.88;77.25;100131.19;1710137;81;20918;-75
2022/12/14 10:46:59;;;;;;;49.90;24.95;;;;;;;-3.89;77.26;100126.54;1713208;82;21026;-75
2022/12/14 10:50:09;;;;;;;53.75;28.40;;;;;;;-3.84;77.36;100126.29;1702193;83;21502;-75
2022/12/14 10:52:56;;;;;;;51.02;24.23;;;;;;;-3.79;77.32;100125.18;1719398;80;21037;-76
2022/12/14 10:55:43;;;;;;;53.35;25.92;;;;;;;-3.76;77.44;100119.83;1708548;81;20927;-76
2022/12/14 10:58:28;;;;;;;52.27;26.37;;;;;;;-3.72;77.34;100120.39;1709025;82;20891;-76
2022/12/14 11:01:14;;;;;;;52.13;25.83;;;;;;;-3.67;77.43;100117.61;1711555;81;20939;-75
2022/12/14 11:03:59;;;;;;;62.43;26.95;;;;;;;-3.61;77.44;100109.34;1709560;82;21478;-75
2022/12/14 11:06:44;;;;;;;53.35;24.55;;;;;;;-3.56;77.45;100110.34;1709805;82;20971;-76
2022/12/14 11:09:29;;;;;;;50.35;26.10;;;;;;;-3.50;77.50;100104.63;1707391;82;20942;-75
2022/12/14 11:12:26;;;;;;;56.33;26.27;;;;;;;-3.47;77.43;100103.06;1711370;82;21831;-76
2022/12/14 11:15:19;;;;;;;55.92;28.02;;;;;;;-3.44;77.40;100104.42;1707846;82;21045;-76
2022/12/14 11:18:12;;;;;;;52.43;26.33;;;;;;;-3.43;77.31;100102.75;1705868;83;21796;-75
2022/12/14 11:21:04;;;;;;;50.25;25.50;;;;;;;-3.44;77.36;100094.31;1707276;81;20958;-76
2022/12/14 11:23:53;;;;;;;48.45;25.82;;;;;;;-3.41;77.44;100089.76;1705538;82;21522;-75
2022/12/14 11:26:41;;;;;;;59.53;28.10;;;;;;;-3.38;77.42;100086.06;1708711;81;20946;-75
2022/12/14 11:29:36;;;;;;;56.63;26.93;;;;;;;-3.39;77.35;100076.36;1705532;82;20907;-75
2022/12/14 11:32:24;;;;;;;62.15;29.52;;;;;;;-3.38;77.39;100079.75;1706851;82;21521;-76
2022/12/14 11:35:17;;;;;;;61.08;29.48;;;;;;;-3.38;77.31;100075.95;1706305;82;20958;-75
2022/12/14 11:38:02;;;;;;;61.40;28.17;;;;;;;-3.38;77.34;100073.42;1707043;82;20931;-75
2022/12/14 11:40:47;;;;;;;56.20;27.80;;;;;;;-3.39;77.26;100071.30;1708908;81;20899;-75
2022/12/14 11:43:37;;;;;;;60.28;28.55;;;;;;;-3.40;77.32;100063.27;1705492;82;20950;-76
2022/12/14 11:46:25;;;;;;;63.65;28.38;;;;;;;-3.39;77.33;100051.48;1705516;82;21585;-75
2022/12/14 11:49:39;;;;;;;59.63;28.17;;;;;;;-3.35;77.40;100057.95;1705497;82;20923;-76
2022/12/14 11:52:41;;;;;;;56.85;27.60;;;;;;;-3.31;77.38;100051.32;1706827;82;21010;-76
2022/12/14 11:55:29;;;;;;;63.02;28.35;;;;;;;-3.30;77.34;100048.39;1705741;82;21017;-75
2022/12/14 11:58:21;;;;;;;57.58;29.20;;;;;;;-3.28;77.34;100042.97;1704680;83;20974;-75
2022/12/14 12:01:17;;;;;;;53.92;26.40;;;;;;;-3.27;77.31;100044.28;1707047;81;20922;-75
2022/12/14 12:04:02;;;;;;;59.13;28.75;;;;;;;-3.25;77.36;100041.80;1705239;81;20895;-76
2022/12/14 12:06:47;;;;;;;61.00;28.05;;;;;;;-3.25;77.31;100043.06;1707455;82;21383;-76
2022/12/14 12:09:33;;;;;;;62.33;30.00;;;;;;;-3.28;77.28;100039.18;1705900;82;20947;-76
2022/12/14 12:12:21;;;;;;;58.33;29.07;;;;;;;-3.32;77.16;100036.11;1705401;82;20911;-76
2022/12/14 12:15:09;;;;;;;58.30;28.38;;;;;;;-3.35;77.20;100038.14;1707054;81;21415;-76
2022/12/14 12:18:05;;;;;;;54.35;29.25;;;;;;;-3.40;77.22;100025.36;1692042;82;20938;-76
2022/12/14 12:21:07;;;;;;;61.85;30.37;;;;;;;-3.41;77.21;100026.58;1696618;82;21408;-76
2022/12/14 12:24:12;;;;;;;66.50;30.32;;;;;;;-3.43;77.18;100028.20;1711492;82;20922;-75
2022/12/14 12:27:10;;;;;;;67.15;30.97;;;;;;;-3.51;77.14;100024.17;1711362;82;21034;-75
2022/12/14 12:29:57;;;;;;;78.83;33.87;;;;;;;-3.53;77.18;100024.94;1715246;82;20906;-76
2022/12/14 12:32:52;;;;;;;68.57;30.97;;;;;;;-3.54;77.18;100016.50;1715120;81;21106;-76
2022/12/14 12:35:44;;;;;;;66.77;33.25;;;;;;;-3.57;77.17;100016.41;1715574;82;20949;-75
2022/12/14 12:39:07;;;;;;;64.75;30.50;;;;;;;-3.59;77.13;100023.48;1711562;81;20910;-76
2022/12/14 12:42:15;;;;;;;60.75;28.98;;;;;;;-3.61;77.14;100023.84;1711791;82;20930;-76
2022/12/14 12:45:17;;;;;;;67.60;31.17;;;;;;;-3.64;77.18;100022.11;1580126;81;5001625;-76
2022/12/14 12:48:13;;;;;;;65.00;31.17;;;;;;;-3.64;77.21;100012.00;1712445;81;21296;-76
2022/12/14 12:51:15;;;;;;;63.68;31.70;;;;;;;-3.62;77.17;100010.75;1713133;82;20903;-76
2022/12/14 12:54:08;;;;;;;64.40;30.68;;;;;;;-3.64;77.17;100007.35;1712687;81;21002;-76
2022/12/14 12:56:56;;;;;;;59.67;29.25;;;;;;;-3.68;77.11;100005.99;1709600;81;21494;-76
2022/12/14 12:59:49;;;;;;;63.15;29.92;;;;;;;-3.71;77.13;100008.42;1710094;81;20918;-76
2022/12/14 13:02:42;;;;;;;67.00;30.85;;;;;;;-3.71;77.14;100002.11;1711250;81;20937;-75
2022/12/14 13:05:29;;;;;;;65.32;31.90;;;;;;;-3.69;77.16;100004.69;1712750;81;21352;-76
2022/12/14 13:08:30;;;;;;;61.90;30.77;;;;;;;-3.67;77.13;100003.92;1713307;81;20950;-76
2022/12/14 13:11:20;;;;;;;57.50;29.82;;;;;;;-3.63;77.15;100003.58;1709613;81;20939;-76
2022/12/14 13:14:29;;;;;;;63.28;31.07;;;;;;;-3.58;77.19;100001.20;1711165;81;21426;-76
2022/12/14 13:17:31;;;;;;;59.23;29.98;;;;;;;-3.57;77.12;99992.80;1711814;81;20919;-76